Time;durP1;ratioP1;P1;durP2;ratioP2;P2;SDS_P1;SDS_P2;PMS_P1;PMS_P2;Temp;Humidity;BMP_temperature;BMP_pressure;BME280_temperature;BME280_humidity;BME280_pressure;Samples;Min_cycle;Max_cycle;Signal;HPM_P1;HPM_P2
2022/03/23 00:00:15;0.00;0.00;0.62;0.00;0.00;0.62;3.90;3.50;;;26.90;20.10;;;;;;2231140;62;20646;-49
2022/03/23 00:03:03;0.00;0.00;0.62;0.00;0.00;0.62;5.73;4.30;;;26.90;20.20;;;;;;2231592;62;20443;-47
2022/03/23 00:05:48;0.00;0.00;0.62;0.00;0.00;0.62;5.27;4.53;;;26.90;20.20;;;;;;2232843;62;20375;-50
2022/03/23 00:08:32;0.00;0.00;0.62;0.00;0.00;0.62;4.63;4.23;;;26.90;20.20;;;;;;2231804;62;20375;-46
2022/03/23 00:11:17;0.00;0.00;0.62;0.00;0.00;0.62;4.90;3.70;;;26.90;20.20;;;;;;2232740;62;20470;-46
2022/03/23 00:14:02;0.00;0.00;0.62;0.00;0.00;0.62;5.33;4.33;;;26.90;20.20;;;;;;2232695;62;20848;-52
2022/03/23 00:16:46;0.00;0.00;0.62;0.00;0.00;0.62;4.80;4.30;;;26.80;20.20;;;;;;2232019;62;20920;-50
2022/03/23 00:19:32;0.00;0.00;0.62;0.00;0.00;0.62;4.07;3.53;;;26.90;20.30;;;;;;2231952;62;20432;-47
2022/03/23 00:22:17;0.00;0.00;0.62;0.00;0.00;0.62;4.13;3.50;;;26.80;20.20;;;;;;2231112;62;20995;-50
2022/03/23 00:25:02;0.00;0.00;0.62;0.00;0.00;0.62;4.60;4.20;;;26.80;20.30;;;;;;2231973;62;20372;-48
2022/03/23 00:27:47;0.00;0.00;0.62;0.00;0.00;0.62;5.37;4.87;;;26.80;20.20;;;;;;2232183;62;20512;-47
2022/03/23 00:30:33;0.00;0.00;0.62;0.00;0.00;0.62;5.57;5.03;;;26.80;20.10;;;;;;2230750;62;20925;-48
2022/03/23 00:33:17;0.00;0.00;0.62;0.00;0.00;0.62;7.33;6.73;;;26.80;20.00;;;;;;2231920;62;20387;-50
2022/03/23 00:36:06;0.00;0.00;0.62;0.00;0.00;0.62;7.33;6.63;;;26.80;19.80;;;;;;2234153;62;20901;-47
2022/03/23 00:38:53;0.00;0.00;0.62;0.00;0.00;0.62;8.60;7.77;;;26.80;19.60;;;;;;2230983;62;20525;-47
2022/03/23 00:41:38;0.00;0.00;0.62;0.00;0.00;0.62;9.20;8.40;;;26.80;19.50;;;;;;2231919;62;20947;-49
2022/03/23 00:44:24;0.00;0.00;0.62;0.00;0.00;0.62;9.13;8.23;;;26.80;19.40;;;;;;2233381;62;20810;-50
2022/03/23 00:47:09;0.00;0.00;0.62;0.00;0.00;0.62;9.80;8.80;;;26.80;19.40;;;;;;2234156;62;20420;-48
2022/03/23 00:49:54;0.00;0.00;0.62;0.00;0.00;0.62;9.40;8.50;;;26.70;19.20;;;;;;2231769;62;20435;-47
2022/03/23 00:52:40;0.00;0.00;0.62;0.00;0.00;0.62;10.47;9.57;;;26.70;19.10;;;;;;2233317;62;20491;-52
2022/03/23 00:55:25;0.00;0.00;0.62;0.00;0.00;0.62;10.30;9.20;;;26.70;19.10;;;;;;2231864;62;20402;-51
2022/03/23 00:58:10;0.00;0.00;0.62;0.00;0.00;0.62;13.30;10.70;;;26.60;19.00;;;;;;2232091;62;20427;-49
2022/03/23 01:00:55;0.00;0.00;0.62;0.00;0.00;0.62;11.10;10.10;;;26.60;19.00;;;;;;2231182;62;20398;-47
2022/03/23 01:03:40;0.00;0.00;0.62;0.00;0.00;0.62;12.33;11.23;;;26.60;19.00;;;;;;2231698;62;20367;-49
2022/03/23 01:06:24;0.00;0.00;0.62;0.00;0.00;0.62;12.67;11.50;;;26.60;18.90;;;;;;2233439;62;20367;-47
2022/03/23 01:09:11;0.00;0.00;0.62;0.00;0.00;0.62;11.20;10.20;;;26.50;18.80;;;;;;2231988;62;20780;-51
2022/03/23 01:11:57;0.00;0.00;0.62;0.00;0.00;0.62;12.77;11.57;;;26.50;18.80;;;;;;2231895;62;20410;-50
2022/03/23 01:14:42;0.00;0.00;0.62;0.00;0.00;0.62;11.97;10.87;;;26.50;18.80;;;;;;2231162;62;20404;-46
2022/03/23 01:17:26;0.00;0.00;0.62;0.00;0.00;0.62;13.13;11.93;;;26.40;18.70;;;;;;2234245;62;20370;-50
2022/03/23 01:20:14;0.00;0.00;0.62;0.00;0.00;0.62;12.87;11.53;;;26.40;18.70;;;;;;2231734;62;20440;-46
2022/03/23 01:22:58;0.00;0.00;0.62;0.00;0.00;0.62;12.73;11.53;;;26.40;18.70;;;;;;2231474;62;21041;-50
2022/03/23 01:25:44;0.00;0.00;0.62;0.00;0.00;0.62;12.80;11.60;;;26.30;18.70;;;;;;2231987;62;20371;-53
2022/03/23 01:28:29;0.00;0.00;0.62;0.00;0.00;0.62;12.90;11.70;;;26.30;18.60;;;;;;2230811;62;20375;-54
2022/03/23 01:31:15;0.00;0.00;0.62;0.00;0.00;0.62;12.73;11.53;;;26.30;18.60;;;;;;2231535;62;20482;-55
2022/03/23 01:33:59;0.00;0.00;0.62;0.00;0.00;0.62;12.30;11.10;;;26.20;18.50;;;;;;2231900;62;20439;-52
2022/03/23 01:36:44;0.00;0.00;0.62;0.00;0.00;0.62;14.90;13.50;;;26.20;18.50;;;;;;2230983;62;20403;-52
2022/03/23 01:39:31;0.00;0.00;0.62;0.00;0.00;0.62;13.80;12.60;;;26.20;18.50;;;;;;2667951;46;20917;-52
2022/03/23 01:42:20;0.00;0.00;0.62;0.00;0.00;0.62;12.60;11.40;;;26.20;18.50;;;;;;2227520;62;20449;-53
2022/03/23 01:45:07;0.00;0.00;0.62;0.00;0.00;0.62;14.80;13.30;;;26.10;18.50;;;;;;2227268;62;20800;-53
2022/03/23 01:47:51;0.00;0.00;0.62;0.00;0.00;0.62;14.33;12.93;;;26.10;18.50;;;;;;2227706;62;20913;-53
2022/03/23 01:50:37;0.00;0.00;0.62;0.00;0.00;0.62;13.40;12.20;;;26.00;18.40;;;;;;2226742;62;20376;-51
2022/03/23 01:53:22;0.00;0.00;0.62;0.00;0.00;0.62;13.60;12.20;;;26.00;18.40;;;;;;2227680;62;20399;-53
2022/03/23 01:56:11;0.00;0.00;0.62;0.00;0.00;0.62;15.80;14.30;;;26.00;18.50;;;;;;2228110;62;20772;-52
2022/03/23 01:58:57;0.00;0.00;0.62;0.00;0.00;0.62;13.27;11.97;;;26.00;18.50;;;;;;2229129;62;20954;-50
2022/03/23 02:01:43;0.00;0.00;0.62;0.00;0.00;0.62;13.10;11.90;;;26.00;18.50;;;;;;2226890;62;20380;-55
2022/03/23 02:04:27;0.00;0.00;0.62;0.00;0.00;0.62;14.60;13.33;;;25.90;18.50;;;;;;2227415;62;20375;-49
2022/03/23 02:07:14;0.00;0.00;0.62;0.00;0.00;0.62;14.50;13.00;;;25.90;18.50;;;;;;2226578;62;20372;-50
2022/03/23 02:10:04;0.00;0.00;0.62;0.00;0.00;0.62;15.10;13.53;;;25.80;18.40;;;;;;2224687;62;20372;-56
2022/03/23 02:13:03;0.00;0.00;0.62;0.00;0.00;0.62;15.90;14.20;;;25.80;18.80;;;;;;2226615;62;20388;-51
2022/03/23 02:15:50;0.00;0.00;0.62;0.00;0.00;0.62;15.73;14.23;;;25.80;18.50;;;;;;2227131;62;20825;-52
2022/03/23 02:18:35;0.00;0.00;0.62;0.00;0.00;0.62;14.90;13.50;;;25.80;18.50;;;;;;2228010;62;20412;-49
2022/03/23 02:21:20;0.00;0.00;0.62;0.00;0.00;0.62;15.17;13.73;;;25.70;18.40;;;;;;2226309;62;20411;-53
2022/03/23 02:24:06;0.00;0.00;0.62;0.00;0.00;0.62;15.20;13.70;;;25.70;18.40;;;;;;2227785;62;20376;-50
2022/03/23 02:26:52;0.00;0.00;0.62;0.00;0.00;0.62;15.40;14.00;;;25.70;18.40;;;;;;2228078;62;20779;-54
2022/03/23 02:29:37;0.00;0.00;0.62;0.00;0.00;0.62;16.07;14.40;;;25.60;18.50;;;;;;2227003;62;20379;-49
2022/03/23 02:32:21;0.00;0.00;0.62;0.00;0.00;0.62;15.40;14.00;;;25.60;18.40;;;;;;2227589;62;20388;-52
2022/03/23 02:35:08;0.00;0.00;0.62;0.00;0.00;0.62;15.30;13.87;;;25.60;18.50;;;;;;2227034;62;20388;-49
2022/03/23 02:37:52;0.00;0.00;0.62;0.00;0.00;0.62;15.40;13.90;;;25.50;18.40;;;;;;2227571;62;20372;-52
2022/03/23 02:40:39;0.00;0.00;0.62;0.00;0.00;0.62;15.30;13.80;;;25.50;18.40;;;;;;2227770;62;20404;-52
2022/03/23 02:43:23;0.00;0.00;0.62;0.00;0.00;0.62;15.97;14.47;;;25.50;18.50;;;;;;2226564;62;20436;-52
2022/03/23 02:46:12;0.00;0.00;0.62;0.00;0.00;0.62;14.53;13.03;;;25.50;18.50;;;;;;2227617;62;20428;-52
2022/03/23 02:48:57;0.00;0.00;0.62;0.00;0.00;0.62;15.10;13.80;;;25.40;18.50;;;;;;2227958;62;20754;-52
2022/03/23 02:51:42;0.00;0.00;0.62;0.00;0.00;0.62;14.50;13.10;;;25.40;18.50;;;;;;2226913;62;20403;-54
2022/03/23 03:04:29;0.00;0.00;0.62;0.00;0.00;0.62;15.50;13.90;;;25.20;18.50;;;;;;2227672;62;20436;-51
2022/03/23 03:07:15;0.00;0.00;0.62;0.00;0.00;0.62;17.63;15.13;;;25.20;18.50;;;;;;2227884;62;20376;-52
2022/03/23 03:09:59;0.00;0.00;0.62;0.00;0.00;0.62;15.20;13.80;;;25.20;18.50;;;;;;2227693;62;20750;-52
2022/03/23 03:12:46;0.00;0.00;0.62;0.00;0.00;0.62;16.03;14.53;;;25.20;18.60;;;;;;2227112;62;20488;-53
2022/03/23 03:15:31;0.00;0.00;0.62;0.00;0.00;0.62;15.20;13.80;;;25.10;18.50;;;;;;2228482;62;20427;-52
2022/03/23 03:18:15;0.00;0.00;0.62;0.00;0.00;0.62;15.40;14.00;;;25.10;18.50;;;;;;2228408;62;20375;-52
2022/03/23 03:21:03;0.00;0.00;0.62;0.00;0.00;0.62;15.57;14.07;;;25.10;19.00;;;;;;2227404;62;20388;-54
2022/03/23 03:23:48;0.00;0.00;0.62;0.00;0.00;0.62;15.07;13.60;;;25.10;18.50;;;;;;2228453;62;20962;-54
2022/03/23 03:26:32;0.00;0.00;0.62;0.00;0.00;0.62;15.07;13.53;;;25.00;18.50;;;;;;2228729;62;20434;-52
2022/03/23 03:29:18;0.00;0.00;0.62;0.00;0.00;0.62;15.30;13.83;;;25.00;18.40;;;;;;2228088;62;20372;-54
2022/03/23 03:32:04;0.00;0.00;0.62;0.00;0.00;0.62;14.50;13.10;;;25.00;18.50;;;;;;2228519;62;20835;-54
2022/03/23 03:34:49;0.00;0.00;0.62;0.00;0.00;0.62;14.80;13.40;;;25.00;18.50;;;;;;2227502;62;20367;-53
2022/03/23 03:37:34;0.00;0.00;0.62;0.00;0.00;0.62;14.70;13.30;;;24.90;18.40;;;;;;2228350;62;20372;-53
2022/03/23 03:40:18;0.00;0.00;0.62;0.00;0.00;0.62;15.57;14.07;;;24.90;18.40;;;;;;2227654;62;20908;-52
2022/03/23 03:43:03;0.00;0.00;0.62;0.00;0.00;0.62;16.03;14.37;;;24.90;18.40;;;;;;2227233;62;20477;-53
2022/03/23 03:45:49;0.00;0.00;0.62;0.00;0.00;0.62;15.67;14.17;;;24.90;18.40;;;;;;2228222;62;20372;-52
2022/03/23 03:48:34;0.00;0.00;0.62;0.00;0.00;0.62;15.27;13.87;;;24.80;18.40;;;;;;2228239;62;20864;-53
2022/03/23 03:51:18;0.00;0.00;0.62;0.00;0.00;0.62;16.57;14.87;;;24.80;18.40;;;;;;2227578;62;20469;-51
2022/03/23 03:54:03;0.00;0.00;0.62;0.00;0.00;0.62;16.77;14.87;;;24.80;18.40;;;;;;2228274;62;20909;-53
2022/03/23 03:56:48;0.00;0.00;0.62;0.00;0.00;0.62;14.83;13.43;;;24.80;18.40;;;;;;2227161;62;20460;-56
2022/03/23 03:59:32;0.00;0.00;0.62;0.00;0.00;0.62;15.10;13.63;;;24.80;18.40;;;;;;2227999;62;20764;-54
2022/03/23 04:02:19;0.00;0.00;0.62;0.00;0.00;0.62;14.20;12.90;;;24.70;18.40;;;;;;2228220;62;20565;-50
2022/03/23 04:05:04;0.00;0.00;0.62;0.00;0.00;0.62;14.63;13.33;;;24.70;18.30;;;;;;2227207;62;20423;-53
2022/03/23 04:07:49;0.00;0.00;0.62;0.00;0.00;0.62;16.10;14.50;;;24.70;18.40;;;;;;2227944;62;20394;-53
2022/03/23 04:10:33;0.00;0.00;0.62;0.00;0.00;0.62;14.60;13.10;;;24.70;18.40;;;;;;2228134;62;20372;-52
2022/03/23 04:13:18;0.00;0.00;0.62;0.00;0.00;0.62;16.23;14.63;;;24.60;18.30;;;;;;2227367;62;20924;-51
2022/03/23 04:16:02;0.00;0.00;0.62;0.00;0.00;0.62;15.00;13.57;;;24.60;18.30;;;;;;2228073;62;20933;-50
2022/03/23 04:18:49;0.00;0.00;0.62;0.00;0.00;0.62;15.50;14.00;;;24.60;18.30;;;;;;2227300;62;20400;-54
2022/03/23 04:21:34;0.00;0.00;0.62;0.00;0.00;0.62;15.23;13.80;;;24.60;18.30;;;;;;2227789;62;20400;-52
2022/03/23 04:24:18;0.00;0.00;0.62;0.00;0.00;0.62;15.27;13.67;;;24.50;18.30;;;;;;2227895;62;20368;-52
2022/03/23 04:27:04;0.00;0.00;0.62;0.00;0.00;0.62;14.97;13.60;;;24.50;18.30;;;;;;2227526;62;20764;-56
2022/03/23 04:29:48;0.00;0.00;0.62;0.00;0.00;0.62;15.80;14.30;;;24.50;18.30;;;;;;2227668;62;20369;-52
2022/03/23 04:32:33;0.00;0.00;0.62;0.00;0.00;0.62;14.47;13.07;;;24.50;18.30;;;;;;2228290;62;20436;-51
2022/03/23 04:35:22;0.00;0.00;0.62;0.00;0.00;0.62;15.60;14.00;;;24.50;18.30;;;;;;2227348;62;20372;-53
2022/03/23 04:38:07;0.00;0.00;0.62;0.00;0.00;0.62;15.73;14.13;;;24.40;18.30;;;;;;2228021;62;20457;-52
2022/03/23 04:40:52;0.00;0.00;0.62;0.00;0.00;0.62;14.47;13.07;;;24.40;18.30;;;;;;2226672;62;20452;-53
2022/03/23 04:43:38;0.00;0.00;0.62;0.00;0.00;0.62;13.97;12.67;;;24.40;18.30;;;;;;2227816;62;20489;-55
2022/03/23 04:46:23;0.00;0.00;0.62;0.00;0.00;0.62;14.93;13.53;;;24.40;18.40;;;;;;2228245;62;20456;-52
2022/03/23 04:49:08;0.00;0.00;0.62;0.00;0.00;0.62;14.77;13.47;;;24.40;18.50;;;;;;2227146;62;20440;-52
2022/03/23 04:51:54;0.00;0.00;0.62;0.00;0.00;0.62;15.77;14.30;;;24.30;18.40;;;;;;2227765;62;20428;-53
2022/03/23 04:54:39;0.00;0.00;0.62;0.00;0.00;0.62;14.67;13.17;;;24.30;18.40;;;;;;2228185;62;20428;-51
2022/03/23 04:57:24;0.00;0.00;0.62;0.00;0.00;0.62;13.93;12.63;;;24.30;18.40;;;;;;2227102;62;20425;-51
2022/03/23 05:00:13;0.00;0.00;0.62;0.00;0.00;0.62;14.83;13.37;;;24.30;18.40;;;;;;2227736;62;20489;-52
2022/03/23 05:02:58;0.00;0.00;0.62;0.00;0.00;0.62;13.60;12.37;;;24.30;18.40;;;;;;2227842;62;20510;-55
2022/03/23 05:05:44;0.00;0.00;0.62;0.00;0.00;0.62;13.90;12.47;;;24.20;18.80;;;;;;2227951;62;20372;-52
2022/03/23 05:08:30;0.00;0.00;0.62;0.00;0.00;0.62;14.37;13.00;;;24.20;18.20;;;;;;2228162;62;20953;-51
2022/03/23 05:11:14;0.00;0.00;0.62;0.00;0.00;0.62;14.17;12.83;;;24.20;18.10;;;;;;2226828;62;20442;-51
2022/03/23 05:13:59;0.00;0.00;0.62;0.00;0.00;0.62;14.43;13.13;;;24.20;18.10;;;;;;2227806;62;20452;-51
2022/03/23 05:16:43;0.00;0.00;0.62;0.00;0.00;0.62;14.80;13.50;;;24.10;18.00;;;;;;2228114;62;20913;-54
2022/03/23 05:19:28;0.00;0.00;0.62;0.00;0.00;0.62;16.73;11.57;;;24.10;17.90;;;;;;2226775;62;20372;-52
2022/03/23 05:22:12;0.00;0.00;0.62;0.00;0.00;0.62;13.37;12.13;;;24.10;17.90;;;;;;2227796;62;20399;-52
2022/03/23 05:24:58;0.00;0.00;0.62;0.00;0.00;0.62;12.33;11.10;;;24.00;17.90;;;;;;2227769;62;20452;-51
2022/03/23 05:27:43;0.00;0.00;0.62;0.00;0.00;0.62;12.43;11.17;;;24.00;17.90;;;;;;2227917;62;20420;-52
2022/03/23 05:30:27;0.00;0.00;0.62;0.00;0.00;0.62;14.10;12.80;;;24.00;17.90;;;;;;2227183;62;20475;-52
2022/03/23 05:33:12;0.00;0.00;0.62;0.00;0.00;0.62;14.70;13.20;;;24.00;18.00;;;;;;2226884;62;20400;-51
2022/03/23 05:35:57;0.00;0.00;0.62;0.00;0.00;0.62;13.10;11.80;;;23.90;17.90;;;;;;2227751;62;20372;-51
2022/03/23 05:38:41;0.00;0.00;0.62;0.00;0.00;0.62;14.97;13.57;;;23.90;18.00;;;;;;2228076;62;20376;-50
2022/03/23 05:41:27;0.00;0.00;0.62;0.00;0.00;0.62;14.10;12.80;;;23.90;17.90;;;;;;2226829;62;20403;-52
2022/03/23 05:44:12;0.00;0.00;0.62;0.00;0.00;0.62;13.80;12.50;;;23.90;17.90;;;;;;2227967;62;20388;-50
2022/03/23 05:46:56;0.00;0.00;0.62;0.00;0.00;0.62;13.63;12.23;;;23.80;17.80;;;;;;2227721;62;20392;-52
2022/03/23 05:49:41;0.00;0.00;0.62;0.00;0.00;0.62;15.57;13.93;;;23.80;17.80;;;;;;2226381;62;20505;-56
2022/03/23 05:52:26;0.00;0.00;0.62;0.00;0.00;0.62;14.77;13.30;;;23.80;17.80;;;;;;2242567;58;20415;-54
2022/03/23 05:55:11;0.00;0.00;0.62;0.00;0.00;0.62;14.20;12.80;;;23.80;17.80;;;;;;2230767;62;20415;-52
2022/03/23 05:57:57;0.00;0.00;0.62;0.00;0.00;0.62;13.93;12.53;;;23.70;17.60;;;;;;2231617;62;20366;-55
2022/03/23 06:00:42;0.00;0.00;0.62;0.00;0.00;0.62;14.90;13.50;;;23.70;17.60;;;;;;2231587;62;20844;-52
2022/03/23 06:03:26;0.00;0.00;0.62;0.00;0.00;0.62;13.23;12.03;;;23.70;17.60;;;;;;2231050;62;20427;-58
2022/03/23 06:06:11;0.00;0.00;0.62;0.00;0.00;0.62;15.47;13.87;;;23.70;17.70;;;;;;2232067;62;20371;-53
2022/03/23 06:08:56;0.00;0.00;0.62;0.00;0.00;0.62;14.80;13.30;;;23.60;17.60;;;;;;2231857;62;20944;-52
2022/03/23 06:11:40;0.00;0.00;0.62;0.00;0.00;0.62;14.87;13.37;;;23.60;17.70;;;;;;2231199;62;20387;-53
2022/03/23 06:14:26;0.00;0.00;0.62;0.00;0.00;0.62;13.50;12.10;;;23.60;17.70;;;;;;2231741;62;20387;-50
2022/03/23 06:17:11;0.00;0.00;0.62;0.00;0.00;0.62;12.90;11.67;;;23.60;17.80;;;;;;2230994;62;20862;-50
2022/03/23 06:19:56;0.00;0.00;0.62;0.00;0.00;0.62;16.17;13.10;;;23.60;17.90;;;;;;2231567;62;20992;-49
2022/03/23 06:22:41;0.00;0.00;0.62;0.00;0.00;0.62;13.83;12.30;;;23.50;17.80;;;;;;2231326;62;20442;-50
2022/03/23 06:25:26;0.00;0.00;0.62;0.00;0.00;0.62;13.77;12.27;;;23.50;17.90;;;;;;2230798;62;20764;-49
2022/03/23 06:28:11;0.00;0.00;0.62;0.00;0.00;0.62;12.57;11.27;;;23.60;18.00;;;;;;2232239;62;20367;-49
2022/03/23 06:30:58;0.00;0.00;0.62;0.00;0.00;0.62;11.93;10.83;;;23.50;18.00;;;;;;2232084;62;20371;-53
2022/03/23 06:33:42;0.00;0.00;0.62;0.00;0.00;0.62;12.90;11.57;;;23.50;18.10;;;;;;2233539;62;20431;-48
2022/03/23 06:36:27;0.00;0.00;0.62;0.00;0.00;0.62;11.80;10.60;;;23.50;18.10;;;;;;2232131;62;20363;-50
2022/03/23 06:39:12;0.00;0.00;0.62;0.00;0.00;0.62;11.17;10.00;;;23.50;18.30;;;;;;2231260;62;20403;-58
2022/03/23 06:41:57;0.00;0.00;0.62;0.00;0.00;0.62;10.20;9.20;;;23.50;18.10;;;;;;2231809;62;20406;-49
2022/03/23 06:44:43;0.00;0.00;0.62;0.00;0.00;0.62;10.30;9.37;;;23.50;18.20;;;;;;2231830;62;20450;-49
2022/03/23 06:47:29;0.00;0.00;0.62;0.00;0.00;0.62;10.13;9.13;;;23.50;18.20;;;;;;2230843;62;20989;-50
2022/03/23 06:50:14;0.00;0.00;0.62;0.00;0.00;0.62;9.50;8.50;;;23.50;18.30;;;;;;2232280;62;20459;-49
2022/03/23 06:52:58;0.00;0.00;0.62;0.00;0.00;0.62;9.87;8.67;;;23.50;18.30;;;;;;2232504;62;20395;-50
2022/03/23 06:55:43;0.00;0.00;0.62;0.00;0.00;0.62;9.00;8.10;;;23.50;18.30;;;;;;2231430;62;20574;-51
2022/03/23 06:58:27;0.00;0.00;0.62;0.00;0.00;0.62;9.83;8.80;;;23.50;18.30;;;;;;2232451;62;20367;-49
2022/03/23 07:01:12;0.00;0.00;0.62;0.00;0.00;0.62;9.20;8.30;;;23.50;18.40;;;;;;2232227;62;20394;-49
2022/03/23 07:03:58;0.00;0.00;0.62;0.00;0.00;0.62;9.20;8.30;;;23.50;18.40;;;;;;2232326;62;20794;-48
2022/03/23 07:06:42;0.00;0.00;0.62;0.00;0.00;0.62;9.40;8.20;;;23.50;18.40;;;;;;2232516;62;20846;-49
2022/03/23 07:09:33;0.00;0.00;0.62;0.00;0.00;0.62;8.13;7.37;;;23.50;18.40;;;;;;2231273;62;20419;-48
2022/03/23 07:12:20;0.00;0.00;0.62;0.00;0.00;0.62;9.60;8.50;;;23.50;18.40;;;;;;2232483;62;20383;-49
2022/03/23 07:15:06;0.00;0.00;0.62;0.00;0.00;0.62;8.30;7.57;;;23.50;18.50;;;;;;2232314;62;20939;-49
2022/03/23 07:17:50;0.00;0.00;0.62;0.00;0.00;0.62;8.67;7.87;;;23.50;18.50;;;;;;2231603;62;20374;-51
2022/03/23 07:20:37;0.00;0.00;0.62;0.00;0.00;0.62;9.80;7.20;;;23.50;18.50;;;;;;2232189;62;20391;-53
2022/03/23 07:23:21;0.00;0.00;0.62;0.00;0.00;0.62;9.03;8.13;;;23.50;18.50;;;;;;2232085;62;20395;-53
2022/03/23 07:26:06;0.00;0.00;0.62;0.00;0.00;0.62;8.97;8.13;;;23.50;18.50;;;;;;2232299;62;20423;-53
2022/03/23 07:28:50;0.00;0.00;0.62;0.00;0.00;0.62;8.17;7.37;;;23.60;18.60;;;;;;2232388;62;20375;-51
2022/03/23 07:31:35;0.00;0.00;0.62;0.00;0.00;0.62;8.17;7.37;;;23.60;18.60;;;;;;2231354;62;20427;-51
2022/03/23 07:34:20;0.00;0.00;0.62;0.00;0.00;0.62;8.17;7.37;;;23.60;18.60;;;;;;2232465;62;20398;-55
2022/03/23 07:37:06;0.00;0.00;0.62;0.00;0.00;0.62;7.90;7.10;;;23.60;18.60;;;;;;2232252;62;20419;-50
2022/03/23 07:39:50;0.00;0.00;0.62;0.00;0.00;0.62;7.43;6.73;;;23.60;18.60;;;;;;2231084;62;20423;-54
2022/03/23 07:42:35;0.00;0.00;0.62;0.00;0.00;0.62;8.40;7.60;;;23.60;18.70;;;;;;2232281;62;20395;-51
2022/03/23 07:45:21;0.00;0.00;0.62;0.00;0.00;0.62;6.50;5.90;;;23.60;18.70;;;;;;2234576;62;20935;-54
2022/03/23 07:48:06;0.00;0.00;0.62;0.00;0.00;0.62;7.27;6.57;;;23.60;18.70;;;;;;2231527;62;20935;-52
2022/03/23 07:50:50;0.00;0.00;0.62;0.00;0.00;0.62;7.10;6.50;;;23.60;18.70;;;;;;2232052;62;20383;-51
2022/03/23 07:53:36;0.00;0.00;0.62;0.00;0.00;0.62;6.40;5.80;;;23.60;18.70;;;;;;2233639;62;20595;-54
2022/03/23 07:56:21;0.00;0.00;0.62;0.00;0.00;0.62;6.73;6.13;;;23.60;18.70;;;;;;2232233;62;20423;-51
2022/03/23 07:59:06;0.00;0.00;0.62;0.00;0.00;0.62;6.47;5.80;;;23.60;18.70;;;;;;2232015;62;20413;-51
2022/03/23 08:01:51;0.00;0.00;0.62;0.00;0.00;0.62;6.60;6.00;;;23.70;18.80;;;;;;2231217;62;20507;-52
2022/03/23 08:04:36;0.00;0.00;0.62;0.00;0.00;0.62;7.67;6.70;;;23.70;18.80;;;;;;2231906;62;20376;-52
2022/03/23 08:07:22;0.00;0.00;0.62;0.00;0.00;0.62;6.80;5.87;;;23.70;18.80;;;;;;2232371;62;20380;-51
2022/03/23 08:10:09;0.00;0.00;0.62;0.00;0.00;0.62;5.93;5.43;;;23.70;18.80;;;;;;2231338;62;20411;-52
2022/03/23 08:12:53;0.00;0.00;0.62;0.00;0.00;0.62;6.43;5.87;;;23.70;18.80;;;;;;2231870;62;20443;-52
2022/03/23 08:15:39;0.00;0.00;0.62;0.00;0.00;0.62;6.90;5.67;;;23.70;18.80;;;;;;2231192;62;20367;-52
2022/03/23 08:18:25;0.00;0.00;0.62;0.00;0.00;0.62;6.37;5.73;;;23.70;18.80;;;;;;2232212;62;20367;-52
2022/03/23 08:21:10;0.00;0.00;0.62;0.00;0.00;0.62;5.47;4.97;;;23.70;18.80;;;;;;2231963;62;20395;-52
2022/03/23 08:23:55;0.00;0.00;0.62;0.00;0.00;0.62;5.87;5.37;;;23.80;18.90;;;;;;2231194;62;20427;-48
2022/03/23 08:26:42;0.00;0.00;0.62;0.00;0.00;0.62;5.30;4.70;;;23.80;18.90;;;;;;2232296;62;20395;-48
2022/03/23 08:29:26;0.00;0.00;0.62;0.00;0.00;0.62;5.60;5.00;;;23.80;18.90;;;;;;2232148;62;20367;-54
2022/03/23 08:32:11;0.00;0.00;0.62;0.00;0.00;0.62;5.53;5.03;;;23.80;18.90;;;;;;2230955;62;20447;-49
2022/03/23 08:34:55;0.00;0.00;0.62;0.00;0.00;0.62;5.50;5.00;;;23.80;18.90;;;;;;2232351;62;20367;-49
2022/03/23 08:37:39;0.00;0.00;0.62;0.00;0.00;0.62;6.50;5.87;;;23.80;18.90;;;;;;2231515;62;20916;-56
2022/03/23 08:40:24;0.00;0.00;0.62;0.00;0.00;0.62;5.73;5.23;;;23.80;18.90;;;;;;2231974;62;20796;-47
2022/03/23 08:43:11;0.00;0.00;0.62;0.00;0.00;0.62;5.50;5.00;;;23.80;18.90;;;;;;2232186;62;20391;-53
2022/03/23 08:45:55;0.00;0.00;0.62;0.00;0.00;0.62;5.47;4.97;;;23.90;19.00;;;;;;2231278;62;20403;-53
2022/03/23 08:48:41;0.00;0.00;0.62;0.00;0.00;0.62;5.20;4.60;;;23.90;19.00;;;;;;2232290;62;20423;-49
2022/03/23 08:51:25;0.00;0.00;0.62;0.00;0.00;0.62;5.10;4.60;;;23.90;19.00;;;;;;2232107;62;20504;-49
2022/03/23 08:54:10;0.00;0.00;0.62;0.00;0.00;0.62;6.03;5.07;;;23.90;19.00;;;;;;2231032;62;20418;-50
2022/03/23 08:56:54;0.00;0.00;0.62;0.00;0.00;0.62;4.90;4.50;;;23.90;19.00;;;;;;2232215;62;20384;-48
2022/03/23 08:59:40;0.00;0.00;0.62;0.00;0.00;0.62;5.00;4.60;;;23.90;19.00;;;;;;2232044;62;20398;-48
2022/03/23 09:02:25;0.00;0.00;0.62;0.00;0.00;0.62;5.03;4.53;;;23.90;19.00;;;;;;2232172;62;21003;-47
2022/03/23 09:05:11;0.00;0.00;0.62;0.00;0.00;0.62;4.77;4.37;;;24.00;19.10;;;;;;2232310;62;20371;-50
2022/03/23 09:07:56;0.00;0.00;0.62;0.00;0.00;0.62;5.50;5.00;;;24.00;19.10;;;;;;2231433;62;20376;-47
2022/03/23 09:10:41;0.00;0.00;0.62;0.00;0.00;0.62;5.10;4.60;;;24.00;19.10;;;;;;2231888;62;20885;-50
2022/03/23 09:13:25;0.00;0.00;0.62;0.00;0.00;0.62;5.60;5.10;;;24.00;19.10;;;;;;2231966;62;20928;-49
2022/03/23 09:16:11;0.00;0.00;0.62;0.00;0.00;0.62;4.73;4.30;;;24.00;19.10;;;;;;2231030;62;20390;-47
2022/03/23 09:18:55;0.00;0.00;0.62;0.00;0.00;0.62;5.93;4.30;;;24.00;19.20;;;;;;2231932;62;20406;-48
2022/03/23 09:21:40;0.00;0.00;0.62;0.00;0.00;0.62;4.10;3.73;;;24.00;19.10;;;;;;2231788;62;20859;-50
2022/03/23 09:24:25;0.00;0.00;0.62;0.00;0.00;0.62;4.97;4.47;;;24.10;19.20;;;;;;2231500;62;20375;-48
2022/03/23 09:27:10;0.00;0.00;0.62;0.00;0.00;0.62;3.77;3.37;;;24.10;19.30;;;;;;2232112;62;20456;-49
2022/03/23 09:29:54;0.00;0.00;0.62;0.00;0.00;0.62;4.17;3.77;;;24.10;19.30;;;;;;2230831;62;20375;-53
2022/03/23 09:32:41;0.00;0.00;0.62;0.00;0.00;0.62;4.57;3.77;;;24.10;19.30;;;;;;2231878;62;20435;-51
2022/03/23 09:35:26;0.00;0.00;0.62;0.00;0.00;0.62;5.00;4.50;;;24.10;19.30;;;;;;2232186;62;20463;-47
2022/03/23 09:38:11;0.00;0.00;0.62;0.00;0.00;0.62;4.00;3.70;;;24.10;19.30;;;;;;2230972;62;20909;-49
2022/03/23 09:40:56;0.00;0.00;0.62;0.00;0.00;0.62;4.70;4.20;;;24.20;19.40;;;;;;2231896;62;20391;-48
2022/03/23 09:43:41;0.00;0.00;0.62;0.00;0.00;0.62;5.50;3.97;;;24.20;19.40;;;;;;2232151;62;20371;-47
2022/03/23 09:46:25;0.00;0.00;0.62;0.00;0.00;0.62;4.67;4.27;;;24.20;19.40;;;;;;2231231;62;20376;-52
2022/03/23 09:49:12;0.00;0.00;0.62;0.00;0.00;0.62;4.30;3.90;;;24.30;19.50;;;;;;2231873;62;20876;-54
2022/03/23 09:51:57;0.00;0.00;0.62;0.00;0.00;0.62;4.30;3.87;;;24.30;19.50;;;;;;2230821;62;20801;-53
2022/03/23 09:54:42;0.00;0.00;0.62;0.00;0.00;0.62;3.80;3.40;;;24.30;19.50;;;;;;2231930;62;20375;-52
2022/03/23 09:57:27;0.00;0.00;0.62;0.00;0.00;0.62;4.77;4.27;;;24.30;20.00;;;;;;2232031;62;20367;-57
2022/03/23 10:00:13;0.00;0.00;0.62;0.00;0.00;0.62;4.07;3.43;;;24.40;19.60;;;;;;2230561;62;21016;-53
2022/03/23 10:03:58;0.00;0.00;0.62;0.00;0.00;0.62;3.93;3.50;;;24.40;19.60;;;;;;2232021;62;20438;-55
2022/03/23 10:07:06;0.00;0.00;0.62;0.00;0.00;0.62;3.90;3.53;;;24.50;19.60;;;;;;2229052;62;20847;-56
2022/03/23 10:10:52;0.00;0.00;0.62;0.00;0.00;0.62;3.80;3.50;;;24.50;19.60;;;;;;2231846;62;20403;-53
2022/03/23 10:14:50;0.00;0.00;0.62;0.00;0.00;0.62;4.47;3.67;;;24.50;19.60;;;;;;2231865;62;20367;-53
2022/03/23 10:18:31;0.00;0.00;0.62;0.00;0.00;0.62;3.50;3.20;;;24.50;19.60;;;;;;2231999;62;20458;-54
2022/03/23 10:21:16;0.00;0.00;0.62;0.00;0.00;0.62;4.37;3.50;;;24.60;19.70;;;;;;2229213;62;20422;-54
2022/03/23 10:24:36;0.00;0.00;0.62;0.00;0.00;0.62;3.60;3.30;;;24.60;19.70;;;;;;2232721;62;20372;-57
2022/03/23 10:27:23;0.00;0.00;0.62;0.00;0.00;0.62;4.40;4.00;;;24.60;19.70;;;;;;2232799;62;20379;-54
2022/03/23 10:30:08;0.00;0.00;0.62;0.00;0.00;0.62;3.80;3.30;;;24.60;19.80;;;;;;2231860;62;20757;-57
2022/03/23 10:32:53;0.00;0.00;0.62;0.00;0.00;0.62;4.40;3.43;;;24.70;19.80;;;;;;2232705;62;21033;-57
2022/03/23 10:35:40;0.00;0.00;0.62;0.00;0.00;0.62;3.70;3.40;;;24.70;19.90;;;;;;2231831;62;20371;-52
2022/03/23 10:38:25;0.00;0.00;0.62;0.00;0.00;0.62;3.83;3.47;;;24.70;19.90;;;;;;2232123;62;20378;-50
2022/03/23 10:41:12;0.00;0.00;0.62;0.00;0.00;0.62;4.13;3.70;;;24.80;19.90;;;;;;2232306;62;20394;-54
2022/03/23 10:43:58;0.00;0.00;0.62;0.00;0.00;0.62;4.00;3.60;;;24.80;19.90;;;;;;2231466;62;20419;-52
2022/03/23 10:46:43;0.00;0.00;0.62;0.00;0.00;0.62;4.07;3.53;;;24.80;19.90;;;;;;2232517;62;20375;-55
2022/03/23 10:49:37;0.00;0.00;0.62;0.00;0.00;0.62;3.43;3.13;;;24.80;19.90;;;;;;2232424;62;21080;-53
2022/03/23 10:52:27;0.00;0.00;0.62;0.00;0.00;0.62;3.83;3.30;;;24.90;20.00;;;;;;2231330;62;20932;-54
2022/03/23 10:55:13;0.00;0.00;0.62;0.00;0.00;0.62;3.50;3.20;;;24.90;20.00;;;;;;2232172;62;20371;-51
2022/03/23 10:58:21;0.00;0.00;0.62;0.00;0.00;0.62;3.43;2.97;;;25.00;20.00;;;;;;2232250;62;20367;-47
2022/03/23 11:01:07;0.00;0.00;0.62;0.00;0.00;0.62;3.93;3.53;;;25.00;20.10;;;;;;2231934;62;20423;-49